Time;durP1;ratioP1;P1;durP2;ratioP2;P2;SDS_P1;SDS_P2;PMS_P1;PMS_P2;Temp;Humidity;BMP_temperature;BMP_pressure;BME280_temperature;BME280_humidity;BME280_pressure;Samples;Min_cycle;Max_cycle;Signal;HPM_P1;HPM_P2
2022/12/08 00:00:18;;;;;;;8.45;4.88;;;;;;;19.56;65.32;98126.44;2067618;28;19924;-69
2022/12/08 00:01:21;;;;;;;18.77;5.80;;;;;;;19.56;65.29;98129.13;2064498;28;20485;-69
2022/12/08 00:02:22;;;;;;;10.45;5.15;;;;;;;19.56;65.38;98118.38;2068120;28;20048;-69
2022/12/08 00:03:23;;;;;;;;;;;;;;;19.46;65.50;98125.28;2067688;28;20509;-69
2022/12/08 00:04:24;;;;;;;12.68;5.40;;;;;;;19.49;65.34;98122.16;2062025;28;19940;-69
2022/12/08 00:09:27;;;;;;;15.38;6.38;;;;;;;19.48;65.22;98118.66;2062089;28;21128;-69
2022/12/08 00:10:28;;;;;;;12.70;5.97;;;;;;;19.49;65.43;98119.47;2063182;28;20049;-68
2022/12/08 00:11:29;;;;;;;;;;;;;;;19.37;65.83;98117.50;2067920;28;20038;-69
2022/12/08 00:12:30;;;;;;;11.40;6.30;;;;;;;19.42;65.79;98120.34;2067959;28;19929;-68
2022/12/08 00:13:32;;;;;;;;;;;;;;;19.32;65.76;98111.97;2070301;28;20574;-68
2022/12/08 00:14:34;;;;;;;17.02;5.70;;;;;;;19.41;65.48;98116.00;2064963;28;19929;-68
2022/12/08 00:15:37;;;;;;;17.65;6.28;;;;;;;19.47;65.47;98111.59;2070852;28;20073;-68
2022/12/08 00:16:38;;;;;;;11.80;5.10;;;;;;;19.50;65.33;98110.34;2067452;28;20050;-69
2022/12/08 00:17:40;;;;;;;;;;;;;;;19.39;65.44;98110.03;2068672;28;20046;-68
2022/12/08 00:18:40;;;;;;;11.18;5.63;;;;;;;19.42;65.33;98112.28;2064683;28;19984;-68
2022/12/08 00:19:42;;;;;;;;;;;;;;;19.35;65.78;98111.50;2063634;28;20132;-68
2022/12/08 00:20:43;;;;;;;14.30;4.65;;;;;;;19.41;65.77;98109.81;2063620;28;19971;-69
2022/12/08 00:21:44;;;;;;;;;;;;;;;19.35;65.90;98110.69;2064119;28;20095;-69
2022/12/08 00:22:45;;;;;;;9.82;4.22;;;;;;;19.40;65.83;98109.00;2063421;28;20386;-69
2022/12/08 00:23:47;;;;;;;13.40;5.25;;;;;;;19.46;65.29;98111.84;2062478;28;20065;-69
2022/12/08 00:24:48;;;;;;;10.30;4.80;;;;;;;19.48;65.56;98112.44;2063370;28;20099;-69
2022/12/08 00:25:49;;;;;;;;;;;;;;;19.35;65.96;98103.44;2065807;28;20076;-69
2022/12/08 00:26:50;;;;;;;8.95;4.85;;;;;;;19.40;65.69;98108.19;2062775;28;19944;-69
2022/12/08 00:27:52;;;;;;;13.73;5.38;;;;;;;19.45;65.41;98110.22;2055504;28;20140;-69
2022/12/08 00:28:53;;;;;;;11.65;5.05;;;;;;;19.48;65.51;98105.19;2065100;28;20049;-69
2022/12/08 00:29:54;;;;;;;;;;;;;;;19.37;65.97;98105.94;2062494;28;20042;-69
2022/12/08 00:30:56;;;;;;;8.18;4.82;;;;;;;19.38;65.68;98100.31;2066916;28;21832;-69
2022/12/08 00:31:58;;;;;;;10.52;4.80;;;;;;;19.43;65.49;98102.34;2065579;28;20042;-68
2022/12/08 00:32:59;;;;;;;15.32;5.68;;;;;;;19.45;65.69;98104.84;2061177;28;20049;-68
2022/12/08 00:34:00;;;;;;;;;;;;;;;19.34;65.67;98099.13;2064794;28;20533;-69
2022/12/08 00:35:01;;;;;;;10.45;5.18;;;;;;;19.39;65.84;98103.84;2061608;28;19929;-68
2022/12/08 00:36:07;;;;;;;12.65;5.55;;;;;;;19.41;65.54;98102.56;2065265;28;20050;-69
2022/12/08 00:37:07;;;;;;;9.75;5.25;;;;;;;19.41;65.80;98107.13;2063143;28;21034;-69
2022/12/08 00:38:09;;;;;;;;;;;;;;;19.31;66.03;98107.63;2064425;28;20049;-69
2022/12/08 00:39:11;;;;;;;12.63;5.15;;;;;;;19.34;65.91;98103.69;2063861;28;19928;-69
2022/12/08 00:40:13;;;;;;;13.32;5.97;;;;;;;19.37;65.74;98101.38;2068041;28;20054;-69
2022/12/08 00:41:16;;;;;;;11.13;4.90;;;;;;;19.41;65.80;98110.63;2061435;28;20053;-68
2022/12/08 00:42:18;;;;;;;11.88;5.47;;;;;;;19.42;65.65;98109.59;2065505;28;20053;-68
2022/12/08 00:43:18;;;;;;;10.82;5.75;;;;;;;19.41;65.85;98113.31;2064042;28;20125;-68
2022/12/08 00:44:20;;;;;;;;;;;;;;;19.32;66.13;98109.28;2063690;28;20050;-69
2022/12/08 00:45:21;;;;;;;16.25;4.85;;;;;;;19.33;66.02;98108.22;2064359;28;19932;-68
2022/12/08 00:46:24;;;;;;;11.45;5.57;;;;;;;19.36;65.92;98106.94;2056990;28;20072;-68
2022/12/08 00:47:26;;;;;;;10.27;5.97;;;;;;;19.37;65.93;98108.63;2059794;28;20037;-68
2022/12/08 00:48:27;;;;;;;11.45;5.95;;;;;;;19.37;65.79;98109.44;2063538;28;20038;-68
2022/12/08 00:49:29;;;;;;;;;;;;;;;19.27;66.08;98110.97;2060413;28;20141;-68
2022/12/08 00:50:29;;;;;;;15.48;6.22;;;;;;;19.28;66.13;98110.78;2064689;28;19936;-68
2022/12/08 00:51:31;;;;;;;;;;;;;;;19.20;66.65;98108.34;2062889;28;20046;-68
2022/12/08 00:52:32;;;;;;;8.27;4.30;;;;;;;19.25;66.10;98116.59;2066235;28;19922;-68
2022/12/08 00:53:33;;;;;;;;;;;;;;;19.16;66.67;98107.94;2064021;28;20064;-68
2022/12/08 00:54:34;;;;;;;10.35;4.80;;;;;;;19.22;66.50;98111.63;2060596;28;20280;-68
2022/12/08 00:55:36;;;;;;;8.65;5.22;;;;;;;19.28;66.25;98109.94;2063237;28;20111;-68
2022/12/08 00:56:37;;;;;;;9.60;4.95;;;;;;;19.29;66.36;98106.22;2065299;28;20054;-68
2022/12/08 00:57:38;;;;;;;;;;;;;;;19.18;66.71;98107.75;2068073;28;20049;-68
2022/12/08 00:58:39;;;;;;;14.40;5.20;;;;;;;19.23;66.52;98105.22;2066475;28;19968;-68
2022/12/08 00:59:41;;;;;;;;;;;;;;;19.15;66.66;98110.88;2062659;28;20066;-69
2022/12/08 01:00:42;;;;;;;8.57;5.10;;;;;;;19.18;66.42;98105.06;2070724;28;19926;-68
2022/12/08 01:01:46;;;;;;;14.10;5.38;;;;;;;19.25;66.33;98111.22;2060115;28;20064;-68
2022/12/08 01:02:47;;;;;;;7.20;4.40;;;;;;;19.27;66.06;98114.47;2063216;28;20064;-68
2022/12/08 01:03:49;;;;;;;;;;;;;;;19.17;66.50;98109.63;2063638;28;20081;-69
2022/12/08 01:04:49;;;;;;;;;;;;;;;19.09;66.76;98109.88;2060799;28;19992;-69
2022/12/08 01:05:51;;;;;;;10.77;5.28;;;;;;;19.15;66.55;98117.06;2059509;28;19924;-69
2022/12/08 01:06:52;;;;;;;14.70;5.72;;;;;;;19.22;66.83;98116.19;2066862;28;20103;-69
2022/12/08 01:07:54;;;;;;;;;;;;;;;19.11;66.79;98110.50;2070370;28;20049;-69
2022/12/08 01:08:54;;;;;;;12.82;6.28;;;;;;;19.17;66.82;98111.50;2069882;28;19925;-69
2022/12/08 01:09:56;;;;;;;;;;;;;;;19.07;66.63;98114.66;2059929;28;20053;-69
2022/12/08 01:11:02;;;;;;;10.75;5.30;;;;;;;19.15;66.83;98111.69;2066750;28;19935;-69
2022/12/08 01:12:05;;;;;;;10.82;5.15;;;;;;;19.18;66.84;98111.25;2065065;28;20068;-69
2022/12/08 01:13:05;;;;;;;10.52;4.78;;;;;;;19.22;66.48;98117.00;2057564;28;20053;-69
2022/12/08 01:14:07;;;;;;;;;;;;;;;19.10;66.69;98118.78;2053998;28;20050;-69
2022/12/08 01:15:08;;;;;;;13.48;5.72;;;;;;;19.12;66.95;98112.13;2050266;28;19932;-68
2022/12/08 01:16:18;;;;;;;11.88;5.43;;;;;;;19.17;67.00;98115.00;2063507;28;20120;-69
2022/12/08 01:17:20;;;;;;;14.70;5.68;;;;;;;19.17;66.81;98117.69;2059374;28;20092;-69
2022/12/08 01:18:22;;;;;;;14.52;5.55;;;;;;;19.18;66.21;98115.81;2051255;28;20049;-69
2022/12/08 01:19:24;;;;;;;13.82;5.47;;;;;;;19.19;66.66;98112.91;2058148;28;20667;-69
2022/12/08 01:20:25;;;;;;;11.82;5.15;;;;;;;19.19;66.41;98117.44;2061372;28;20061;-69
2022/12/08 01:21:27;;;;;;;;;;;;;;;19.07;66.38;98125.41;2059688;28;20515;-69
2022/12/08 01:22:29;;;;;;;15.73;6.22;;;;;;;19.10;66.66;98119.59;2064024;28;20413;-69
2022/12/08 01:23:30;;;;;;;10.57;5.13;;;;;;;19.14;66.80;98120.81;2056299;28;20046;-69
2022/12/08 01:24:31;;;;;;;;;;;;;;;19.02;67.06;98119.03;2059802;28;20056;-69
2022/12/08 01:25:34;;;;;;;15.77;6.32;;;;;;;19.06;66.73;98112.22;2055046;28;20379;-67
2022/12/08 01:26:36;;;;;;;11.18;4.97;;;;;;;19.10;66.92;98118.78;2060216;28;20049;-68
2022/12/08 01:27:36;;;;;;;12.63;4.47;;;;;;;19.11;66.71;98115.88;2059914;28;21249;-69
2022/12/08 01:28:38;;;;;;;;;;;;;;;18.98;67.19;98114.09;2064724;28;20141;-68
2022/12/08 01:29:39;;;;;;;;;;;;;;;18.89;67.87;98118.13;2058691;28;19929;-69
2022/12/08 01:30:41;;;;;;;10.10;5.13;;;;;;;18.97;66.99;98119.69;2057682;28;19921;-69
2022/12/08 01:31:42;;;;;;;19.23;5.85;;;;;;;19.03;67.08;98126.06;2059169;28;20423;-69
2022/12/08 01:32:45;;;;;;;8.98;4.90;;;;;;;19.08;66.87;98128.91;2063155;28;20041;-69
2022/12/08 01:33:47;;;;;;;11.05;5.00;;;;;;;19.07;66.93;98124.59;2060907;28;20045;-69
2022/12/08 01:34:48;;;;;;;13.48;6.97;;;;;;;19.09;66.88;98130.56;2054771;28;20061;-69
2022/12/08 01:35:49;;;;;;;14.40;5.68;;;;;;;19.10;66.73;98129.53;2058115;28;20055;-69
2022/12/08 01:36:51;;;;;;;;;;;;;;;18.95;67.34;98130.66;2065170;28;20513;-69
2022/12/08 01:37:51;;;;;;;11.60;4.95;;;;;;;19.00;67.32;98131.88;2063974;28;19960;-69
2022/12/08 01:38:54;;;;;;;;;;;;;;;18.92;67.31;98132.97;2055801;28;20076;-68
2022/12/08 01:39:55;;;;;;;12.27;5.70;;;;;;;18.96;67.46;98131.50;2059063;28;19929;-69
2022/12/08 01:40:56;;;;;;;;;;;;;;;18.89;67.66;98128.84;2057008;28;20473;-69
2022/12/08 01:41:57;;;;;;;;;;;;;;;18.84;67.43;98136.75;2063097;28;19932;-68
2022/12/08 01:42:59;;;;;;;10.60;5.43;;;;;;;18.92;67.58;98133.81;2063693;28;20905;-69
2022/12/08 01:44:01;;;;;;;13.25;5.50;;;;;;;18.99;67.24;98133.75;2057656;28;20049;-69
2022/12/08 01:45:07;;;;;;;13.70;6.43;;;;;;;19.01;67.46;98137.03;2059539;28;20046;-68
2022/12/08 01:46:08;;;;;;;8.68;6.28;;;;;;;19.02;66.90;98132.47;2065668;28;20053;-69
2022/12/08 01:47:09;;;;;;;;;;;;;;;18.92;67.25;98141.03;2067108;28;20056;-68
2022/12/08 01:48:18;;;;;;;9.45;5.30;;;;;;;18.95;67.92;98124.47;2061725;28;19971;-69
2022/12/08 01:49:24;;;;;;;9.10;5.63;;;;;;;18.98;67.05;98129.41;2060751;28;20123;-69
2022/12/08 01:50:27;;;;;;;9.50;5.35;;;;;;;19.02;67.22;98124.41;2061841;28;20115;-69
2022/12/08 01:51:32;;;;;;;10.85;5.03;;;;;;;19.01;66.88;98128.97;2065282;28;20041;-69
2022/12/08 01:52:39;;;;;;;13.90;5.97;;;;;;;19.02;67.12;98127.09;2061200;28;20061;-68
2022/12/08 01:53:40;;;;;;;8.77;5.38;;;;;;;19.03;67.03;98123.38;2061196;28;20045;-68
2022/12/08 01:54:43;;;;;;;;;;;;;;;18.89;67.55;98136.94;2061642;28;20053;-68
2022/12/08 01:55:50;;;;;;;10.63;5.55;;;;;;;18.93;67.29;98119.31;2058964;28;19929;-69
2022/12/08 01:56:59;;;;;;;9.55;4.55;;;;;;;18.95;67.04;98122.59;2061024;28;20072;-68
2022/12/08 01:58:04;;;;;;;8.02;4.80;;;;;;;18.97;67.38;98125.06;2060386;28;20667;-69
2022/12/08 01:59:07;;;;;;;11.80;5.50;;;;;;;18.98;67.14;98121.34;2056258;28;20056;-69
2022/12/08 02:00:10;;;;;;;15.02;6.63;;;;;;;18.97;67.04;98122.38;2064717;28;20144;-69
2022/12/08 02:01:12;;;;;;;9.50;5.07;;;;;;;18.98;67.43;98124.84;2064435;28;20053;-69
2022/12/08 02:02:13;;;;;;;9.57;5.80;;;;;;;19.00;67.41;98124.66;2064060;28;20130;-70
2022/12/08 02:03:18;;;;;;;;;;;;;;;18.89;67.54;98115.44;2067524;28;20063;-68
2022/12/08 02:04:19;;;;;;;12.55;5.00;;;;;;;18.92;67.32;98115.00;2061460;28;20326;-69
2022/12/08 02:05:21;;;;;;;;;;;;;;;18.84;67.46;98112.56;2060397;28;20077;-68
2022/12/08 02:06:22;;;;;;;10.52;4.90;;;;;;;18.88;67.72;98115.63;2059341;28;19936;-68
2022/12/08 02:07:24;;;;;;;;;;;;;;;18.79;67.86;98123.13;2057712;28;21639;-69
2022/12/08 02:08:26;;;;;;;12.05;5.70;;;;;;;18.87;67.43;98124.75;2057780;28;20434;-69
2022/12/08 02:09:28;;;;;;;12.52;5.38;;;;;;;18.92;67.75;98122.22;2058846;28;20049;-69
2022/12/08 02:10:32;;;;;;;10.65;5.15;;;;;;;18.92;67.52;98117.66;2061983;28;20046;-68
2022/12/08 02:11:33;;;;;;;7.80;4.80;;;;;;;18.93;67.50;98116.63;2057684;28;20076;-68
2022/12/08 02:12:34;;;;;;;8.05;5.03;;;;;;;18.94;67.77;98114.75;2060309;28;20057;-69
2022/12/08 02:13:36;;;;;;;;;;;;;;;18.80;68.20;98108.66;2062955;28;20050;-69
2022/12/08 02:14:37;;;;;;;10.07;4.75;;;;;;;18.83;67.75;98108.22;2061695;28;19925;-68
2022/12/08 02:15:43;;;;;;;;;;;;;;;18.75;68.14;98121.94;2055499;28;20478;-68
2022/12/08 02:16:53;;;;;;;9.35;5.25;;;;;;;18.81;67.55;98110.31;2060883;28;19929;-68
2022/12/08 02:18:04;;;;;;;10.63;5.43;;;;;;;18.84;67.78;98109.06;2066836;28;20108;-69
2022/12/08 02:19:18;;;;;;;;;;;;;;;18.73;68.25;98115.91;2063682;28;20041;-69
2022/12/08 02:20:52;;;;;;;10.25;5.07;;;;;;;18.75;67.90;98117.38;2058800;28;19929;-69
2022/12/08 02:21:59;;;;;;;13.57;5.07;;;;;;;18.78;67.98;98118.81;2066563;28;20054;-69
2022/12/08 02:23:11;;;;;;;8.85;4.65;;;;;;;18.81;67.81;98107.63;2066368;28;20069;-69
2022/12/08 02:24:21;;;;;;;10.95;5.38;;;;;;;18.83;67.69;98108.22;2063613;28;20091;-69
2022/12/08 02:25:33;;;;;;;11.48;6.03;;;;;;;18.84;67.85;98109.06;2060346;28;20045;-69
2022/12/08 02:27:08;;;;;;;11.20;4.65;;;;;;;18.81;67.66;98104.13;2061128;28;20096;-68
2022/12/08 02:28:42;;;;;;;10.90;4.93;;;;;;;18.79;67.82;98104.31;2062474;28;20540;-69
2022/12/08 02:30:06;;;;;;;13.27;4.88;;;;;;;18.75;68.09;98111.19;2061512;28;20064;-69
2022/12/08 02:31:25;;;;;;;9.75;4.85;;;;;;;18.76;68.19;98112.81;2062049;28;20054;-69
2022/12/08 02:32:52;;;;;;;10.02;4.93;;;;;;;18.75;67.87;98108.50;2059806;28;20053;-69
2022/12/08 02:34:07;;;;;;;11.40;5.22;;;;;;;18.77;67.91;98110.97;2060876;28;20061;-69
2022/12/08 02:35:12;;;;;;;9.38;5.70;;;;;;;18.76;67.91;98118.19;2058715;28;26862;-69
2022/12/08 02:36:21;;;;;;;9.45;4.97;;;;;;;18.79;67.69;98123.13;2057632;28;20145;-69
2022/12/08 02:37:28;;;;;;;9.15;5.43;;;;;;;18.83;67.77;98120.81;2058758;28;20042;-69
2022/12/08 02:38:44;;;;;;;8.75;5.22;;;;;;;18.81;67.77;98114.88;2066364;28;20045;-69
2022/12/08 02:39:57;;;;;;;11.65;5.57;;;;;;;18.79;67.53;98115.06;2059123;28;20060;-69
2022/12/08 02:41:16;;;;;;;12.10;6.03;;;;;;;18.78;67.85;98120.66;2062469;28;20045;-69
2022/12/08 02:42:26;;;;;;;8.07;4.57;;;;;;;18.76;67.92;98123.56;2059700;28;20062;-69
2022/12/08 02:43:33;;;;;;;7.68;4.15;;;;;;;18.75;67.90;98120.06;2063530;28;20050;-70
2022/12/08 02:44:39;;;;;;;10.98;5.20;;;;;;;18.76;67.84;98118.19;2062939;28;20072;-69
2022/12/08 02:45:46;;;;;;;8.18;5.05;;;;;;;18.79;67.53;98112.38;2066115;28;20045;-69
2022/12/08 02:46:52;;;;;;;8.88;5.82;;;;;;;18.78;67.79;98112.59;2063315;28;20409;-69
2022/12/08 02:47:53;;;;;;;11.60;4.28;;;;;;;18.78;67.57;98120.66;2065250;28;20046;-69
2022/12/08 02:48:57;;;;;;;9.35;5.47;;;;;;;18.77;67.55;98122.53;2063961;28;20726;-69
2022/12/08 02:49:59;;;;;;;9.43;4.78;;;;;;;18.75;67.43;98122.75;2066364;28;21107;-69
2022/12/08 02:51:00;;;;;;;9.48;5.38;;;;;;;18.77;67.64;98119.84;2067126;28;20050;-69
2022/12/08 02:52:20;;;;;;;11.30;5.20;;;;;;;18.78;67.60;98126.03;2067341;28;20107;-69
2022/12/08 02:53:22;;;;;;;9.05;5.32;;;;;;;18.74;67.71;98123.78;2066229;28;20060;-69
2022/12/08 02:54:22;;;;;;;9.13;4.80;;;;;;;18.75;67.29;98117.38;2064986;28;20049;-69
2022/12/08 02:55:26;;;;;;;;;;;;;;;18.64;67.82;98118.03;2060664;28;20583;-69
2022/12/08 02:56:54;;;;;;;10.35;5.38;;;;;;;18.62;68.31;98119.28;2062926;28;19929;-69
2022/12/08 02:58:36;;;;;;;9.85;5.50;;;;;;;18.66;67.77;98120.50;2064716;28;20045;-69
2022/12/08 02:59:51;;;;;;;11.43;5.45;;;;;;;18.63;67.79;98123.63;2034963;28;20573;-69
2022/12/08 03:01:08;;;;;;;8.23;5.05;;;;;;;18.64;67.93;98119.91;2034505;28;20059;-69
2022/12/08 03:02:28;;;;;;;8.45;4.53;;;;;;;18.65;67.78;98122.38;2035344;28;21098;-69
2022/12/08 03:03:40;;;;;;;9.20;4.97;;;;;;;18.66;68.07;98125.88;2037828;28;20141;-69
2022/12/08 03:04:46;;;;;;;7.28;4.47;;;;;;;18.67;67.64;98116.78;2038947;28;20190;-69
2022/12/08 03:06:00;;;;;;;9.60;4.80;;;;;;;18.66;67.70;98118.63;2062800;28;20084;-69
2022/12/08 03:07:07;;;;;;;11.80;4.65;;;;;;;18.67;67.50;98114.91;2062472;28;20050;-69
2022/12/08 03:08:16;;;;;;;10.73;5.28;;;;;;;18.68;67.30;98115.75;2060016;28;20783;-69
2022/12/08 03:09:24;;;;;;;12.32;4.95;;;;;;;18.68;67.29;98111.19;2059483;28;20085;-69
2022/12/08 03:10:33;;;;;;;12.23;4.60;;;;;;;18.68;67.29;98105.00;2054051;28;20037;-69
2022/12/08 03:11:43;;;;;;;9.73;4.80;;;;;;;18.67;67.61;98112.22;2058705;28;20049;-69
2022/12/08 03:13:37;;;;;;;7.47;5.28;;;;;;;18.62;67.88;98103.19;2059398;28;22303;-69
2022/12/08 03:14:43;;;;;;;13.20;5.07;;;;;;;18.62;67.50;98104.00;2064722;28;20053;-69
2022/12/08 03:15:50;;;;;;;12.98;5.75;;;;;;;18.62;67.34;98101.31;2059357;28;20123;-69
2022/12/08 03:16:54;;;;;;;6.65;4.22;;;;;;;18.67;66.81;98100.66;2043062;28;20959;-69
2022/12/08 03:17:59;;;;;;;8.23;4.63;;;;;;;18.67;67.38;98103.34;2067621;28;20049;-69
2022/12/08 03:19:08;;;;;;;12.20;5.22;;;;;;;18.65;67.39;98094.69;2068058;28;20046;-69
2022/12/08 03:20:15;;;;;;;8.45;5.15;;;;;;;18.61;67.35;98094.31;2065224;28;20136;-69
2022/12/08 03:21:20;;;;;;;10.38;4.50;;;;;;;18.62;67.68;98103.19;2060825;28;20684;-69
2022/12/08 03:22:25;;;;;;;9.02;4.40;;;;;;;18.62;67.62;98100.50;2061067;28;20056;-69
2022/12/08 03:23:27;;;;;;;10.30;5.00;;;;;;;18.63;67.74;98104.81;2066204;28;20511;-69
2022/12/08 03:24:31;;;;;;;10.40;4.82;;;;;;;18.62;67.64;98104.00;2066237;28;20058;-69
2022/12/08 03:25:36;;;;;;;9.15;4.97;;;;;;;18.61;67.61;98104.19;2068789;28;20552;-69
2022/12/08 03:26:45;;;;;;;11.63;4.75;;;;;;;18.59;67.36;98098.25;2066725;28;20072;-69
2022/12/08 03:27:47;;;;;;;12.75;4.95;;;;;;;18.57;67.29;98103.00;2059729;28;20139;-69
2022/12/08 03:28:49;;;;;;;10.48;4.93;;;;;;;18.57;67.63;98095.75;2056416;28;20131;-69
2022/12/08 03:29:53;;;;;;;8.95;4.80;;;;;;;18.61;67.21;98101.50;2059771;28;20057;-69
2022/12/08 03:30:59;;;;;;;7.38;3.83;;;;;;;18.61;67.55;98093.47;2060349;28;20054;-69
2022/12/08 03:32:05;;;;;;;9.75;5.65;;;;;;;18.59;67.49;98092.88;2059978;28;20092;-69
2022/12/08 03:33:12;;;;;;;10.88;5.38;;;;;;;18.59;67.58;98084.81;2064194;28;20548;-69
2022/12/08 03:34:14;;;;;;;8.80;5.07;;;;;;;18.59;67.30;98090.19;2064430;28;20049;-69
2022/12/08 03:35:19;;;;;;;9.07;4.82;;;;;;;18.60;67.62;98091.81;2066485;28;20511;-69
2022/12/08 03:36:22;;;;;;;8.70;5.25;;;;;;;18.60;67.46;98084.59;2064403;28;20055;-69
2022/12/08 03:37:24;;;;;;;11.52;4.90;;;;;;;18.60;67.49;98091.81;2063923;28;20058;-69
2022/12/08 03:38:25;;;;;;;9.50;5.40;;;;;;;18.57;67.50;98094.94;2067780;28;20060;-69
2022/12/08 03:39:26;;;;;;;;;;;;;;;18.46;67.86;98088.41;2069740;28;20659;-69
2022/12/08 03:40:27;;;;;;;;;;;;;;;18.36;67.81;98086.19;2063144;28;19925;-69
2022/12/08 03:41:29;;;;;;;6.67;4.00;;;;;;;18.42;67.78;98096.06;2063034;28;19925;-69
2022/12/08 03:42:29;;;;;;;10.52;4.47;;;;;;;18.47;67.59;98093.56;2059244;28;20916;-69
2022/12/08 03:43:31;;;;;;;;;;;;;;;18.38;67.88;98088.66;2063875;28;20106;-69
2022/12/08 03:44:33;;;;;;;8.70;5.32;;;;;;;18.43;67.90;98083.47;2063101;28;20232;-69
2022/12/08 03:45:34;;;;;;;8.93;5.03;;;;;;;18.48;67.83;98083.63;2066178;28;20124;-69
2022/12/08 03:46:35;;;;;;;;;;;;;;;18.40;67.90;98086.56;2065545;28;20406;-69
2022/12/08 03:47:36;;;;;;;6.97;4.30;;;;;;;18.44;68.08;98093.16;2060852;28;19983;-69
2022/12/08 03:48:38;;;;;;;8.15;5.18;;;;;;;18.48;67.84;98089.00;2062227;28;20504;-69
2022/12/08 03:49:39;;;;;;;7.90;4.60;;;;;;;18.50;67.64;98086.94;2059763;28;20065;-69
2022/12/08 03:50:41;;;;;;;8.55;4.88;;;;;;;18.53;67.83;98092.69;2063755;28;20056;-68
2022/12/08 03:51:43;;;;;;;9.00;4.82;;;;;;;18.53;67.89;98081.94;2066323;28;20621;-69
2022/12/08 03:52:45;;;;;;;8.75;4.63;;;;;;;18.52;68.00;98082.16;2059915;28;20123;-68
2022/12/08 03:53:47;;;;;;;10.95;4.82;;;;;;;18.52;67.86;98080.28;2054097;28;20123;-69
2022/12/08 03:54:48;;;;;;;8.02;4.53;;;;;;;18.52;67.84;98079.47;2061132;28;20311;-69
2022/12/08 03:55:49;;;;;;;10.75;5.07;;;;;;;18.51;67.49;98078.66;2063360;28;20049;-69
2022/12/08 03:56:51;;;;;;;;;;;;;;;18.38;68.25;98078.72;2066906;28;23600;-69
2022/12/08 03:57:51;;;;;;;9.27;5.32;;;;;;;18.41;68.10;98078.28;2064217;28;19933;-69
2022/12/08 03:58:53;;;;;;;;;;;;;;;18.31;67.81;98073.41;2068331;28;20546;-69
2022/12/08 03:59:54;;;;;;;9.75;5.32;;;;;;;18.38;67.87;98072.53;2061195;28;19926;-68
2022/12/08 04:00:56;;;;;;;;;;;;;;;18.30;68.28;98070.91;2063768;28;20046;-68
2022/12/08 04:01:56;;;;;;;7.97;4.78;;;;;;;18.35;68.16;98068.41;2063932;28;20400;-68
2022/12/08 04:02:58;;;;;;;8.57;5.00;;;;;;;18.40;68.50;98071.28;2066422;28;20054;-68
2022/12/08 04:03:59;;;;;;;10.32;4.97;;;;;;;18.43;68.16;98067.34;2062658;28;20107;-68
2022/12/08 04:05:01;;;;;;;;;;;;;;;18.35;68.09;98071.09;2067624;28;20049;-68
2022/12/08 04:06:01;;;;;;;7.18;4.38;;;;;;;18.38;68.35;98069.84;2058952;28;20491;-68
2022/12/08 04:07:04;;;;;;;;;;;;;;;18.28;68.27;98073.84;2063365;28;20053;-69
2022/12/08 04:08:05;;;;;;;9.25;4.40;;;;;;;18.37;68.07;98070.91;2066154;28;19925;-68
2022/12/08 04:09:07;;;;;;;;;;;;;;;18.27;67.96;98077.53;2067144;28;20050;-69
2022/12/08 04:10:08;;;;;;;;;;;;;;;18.21;68.67;98075.72;2062494;28;20385;-69
2022/12/08 04:11:10;;;;;;;14.77;4.35;;;;;;;18.29;68.20;98080.84;2064107;28;19980;-69
2022/12/08 04:12:11;;;;;;;13.98;6.07;;;;;;;18.37;68.16;98081.66;2063843;28;20049;-69
2022/12/08 04:13:13;;;;;;;;;;;;;;;18.26;68.33;98080.47;2066225;28;21023;-68
2022/12/08 04:14:14;;;;;;;7.30;3.92;;;;;;;18.33;68.32;98085.78;2063658;28;19929;-69
2022/12/08 04:15:15;;;;;;;;;;;;;;;18.25;68.25;98082.31;2062955;28;20045;-69
2022/12/08 04:16:18;;;;;;;15.48;4.57;;;;;;;18.29;68.25;98080.03;2067195;28;19955;-69
2022/12/08 04:17:20;;;;;;;8.27;4.57;;;;;;;18.33;68.34;98089.31;2067445;28;20050;-69
2022/12/08 04:18:21;;;;;;;9.05;4.53;;;;;;;18.37;67.91;98087.81;2068846;28;20058;-69
2022/12/08 04:19:23;;;;;;;10.80;4.72;;;;;;;18.38;67.91;98078.72;2067101;28;20041;-69
2022/12/08 04:20:24;;;;;;;6.65;4.30;;;;;;;18.39;67.66;98082.25;2069721;28;20038;-69
2022/12/08 04:21:25;;;;;;;;;;;;;;;18.28;68.30;98081.06;2068474;28;20069;-68
2022/12/08 04:22:28;;;;;;;6.80;4.63;;;;;;;18.31;68.01;98088.69;2064092;28;19925;-69
2022/12/08 04:23:29;;;;;;;13.23;5.05;;;;;;;18.34;67.87;98080.22;2065480;28;20045;-68
2022/12/08 04:24:30;;;;;;;10.38;4.45;;;;;;;18.36;67.77;98080.81;2067913;28;20085;-69
2022/12/08 04:25:32;;;;;;;;;;;;;;;18.26;68.07;98075.09;2064447;28;20046;-69
2022/12/08 04:26:34;;;;;;;8.65;4.32;;;;;;;18.29;67.92;98075.47;2063484;28;20004;-69
2022/12/08 04:27:34;;;;;;;9.45;4.50;;;;;;;18.31;67.84;98075.28;2062210;28;20576;-69
2022/12/08 04:28:36;;;;;;;;;;;;;;;18.20;68.46;98076.78;2061449;28;20155;-69
2022/12/08 04:29:38;;;;;;;13.15;5.05;;;;;;;18.25;68.11;98073.44;2067246;28;19928;-69
2022/12/08 04:30:39;;;;;;;7.22;4.05;;;;;;;18.30;67.77;98074.44;2059421;28;20056;-69
2022/12/08 04:31:40;;;;;;;;;;;;;;;18.22;68.26;98069.34;2063559;28;20057;-69
2022/12/08 04:32:41;;;;;;;11.98;4.10;;;;;;;18.26;68.12;98067.03;2060735;28;19929;-69
2022/12/08 04:33:43;;;;;;;;;;;;;;;18.15;68.52;98068.53;2065922;28;20062;-69
2022/12/08 04:34:43;;;;;;;7.00;3.92;;;;;;;18.22;68.37;98073.84;2063162;28;20026;-69
2022/12/08 04:35:45;;;;;;;10.32;4.82;;;;;;;18.26;68.14;98073.22;2060627;28;20107;-69
2022/12/08 04:36:46;;;;;;;6.05;3.88;;;;;;;18.30;67.81;98071.78;2062176;28;20057;-69
2022/12/08 04:37:49;;;;;;;;;;;;;;;18.19;68.43;98064.41;2066900;28;20058;-69
2022/12/08 04:38:50;;;;;;;7.05;4.38;;;;;;;18.23;68.17;98072.84;2066631;28;20645;-69
2022/12/08 04:39:51;;;;;;;;;;;;;;;18.14;68.35;98071.44;2067669;28;20049;-69
2022/12/08 04:40:52;;;;;;;9.25;4.60;;;;;;;18.21;67.75;98077.59;2060790;28;19929;-68
2022/12/08 04:41:54;;;;;;;;;;;;;;;18.12;68.32;98068.97;2061485;28;20050;-68
2022/12/08 04:42:54;;;;;;;6.35;4.28;;;;;;;18.18;68.37;98068.09;2057471;28;22502;-68
2022/12/08 04:43:56;;;;;;;4.30;3.75;;;;;;;18.24;68.26;98071.78;2064092;28;20054;-68
2022/12/08 04:44:57;;;;;;;9.35;4.47;;;;;;;18.27;67.61;98065.97;2061904;28;20577;-69
2022/12/08 04:45:58;;;;;;;;;;;;;;;18.17;68.19;98071.00;2064193;28;20053;-68
2022/12/08 04:46:59;;;;;;;11.93;4.88;;;;;;;18.19;68.11;98076.97;2070391;28;19932;-68
2022/12/08 04:48:01;;;;;;;;;;;;;;;18.11;68.52;98071.84;2067381;28;20046;-68
2022/12/08 04:49:03;;;;;;;7.00;3.47;;;;;;;18.19;68.71;98072.44;2046519;28;19921;-68
2022/12/08 04:50:05;;;;;;;7.20;4.63;;;;;;;18.27;68.03;98063.31;2060479;28;20071;-69
2022/12/08 04:51:12;;;;;;;7.18;3.88;;;;;;;18.33;68.23;98062.47;2065185;28;20108;-69
2022/12/08 04:52:13;;;;;;;9.80;5.22;;;;;;;18.38;67.93;98067.97;2062840;28;20061;-69
2022/12/08 04:53:15;;;;;;;;;;;;;;;18.32;68.58;98066.16;2060514;28;20045;-69
2022/12/08 04:54:16;;;;;;;7.82;4.00;;;;;;;18.36;68.46;98070.09;2061696;28;19922;-69
2022/12/08 04:55:18;;;;;;;;;;;;;;;18.33;68.69;98065.16;2061273;28;20993;-69
2022/12/08 04:56:19;;;;;;;7.97;3.97;;;;;;;18.42;68.54;98069.22;2059413;28;19929;-68
2022/12/08 04:57:21;;;;;;;;;;;;;;;18.42;68.73;98063.84;2060134;28;20049;-68
2022/12/08 04:58:21;;;;;;;;;;;;;;;18.43;68.36;98076.22;2057210;28;19925;-68
2022/12/08 04:59:23;;;;;;;10.63;4.85;;;;;;;18.52;68.27;98061.50;2057913;28;20414;-69
2022/12/08 05:00:24;;;;;;;8.27;4.30;;;;;;;18.60;68.44;98054.22;2060489;28;20049;-70
2022/12/08 05:01:25;;;;;;;;;;;;;;;18.56;68.51;98058.41;2061399;28;20099;-69
2022/12/08 05:02:26;;;;;;;7.20;3.85;;;;;;;18.64;68.42;98060.81;2059451;28;19965;-69
2022/12/08 05:03:28;;;;;;;;;;;;;;;18.63;68.20;98061.84;2057980;28;20053;-69
2022/12/08 05:04:28;;;;;;;;;;;;;;;18.62;68.52;98060.22;2060009;28;20712;-69
2022/12/08 05:05:30;;;;;;;7.50;4.28;;;;;;;18.70;68.48;98060.75;2061303;28;19929;-69
2022/12/08 05:06:31;;;;;;;6.80;4.18;;;;;;;18.80;67.91;98060.28;2061293;28;20057;-69
2022/12/08 05:07:33;;;;;;;;;;;;;;;18.79;68.28;98057.84;2066114;28;20049;-69
2022/12/08 05:08:35;;;;;;;5.78;4.18;;;;;;;18.83;68.18;98054.47;2064559;28;20693;-68
2022/12/08 05:09:37;;;;;;;13.20;4.35;;;;;;;18.89;67.88;98052.81;2063749;28;20076;-69
2022/12/08 05:10:38;;;;;;;8.82;4.15;;;;;;;18.93;67.73;98062.88;2063087;28;20049;-69